createdAt,value
2019-03-29T00:01:01.636Z,13.70
2019-03-29T00:03:38.234Z,13.70
2019-03-29T00:06:14.211Z,13.70
2019-03-29T00:08:49.288Z,13.70
2019-03-29T00:11:34.578Z,13.80
2019-03-29T00:14:09.926Z,13.80
2019-03-29T00:16:46.190Z,13.80
2019-03-29T00:19:24.262Z,13.80
2019-03-29T00:22:00.641Z,13.70
2019-03-29T00:24:37.254Z,13.70
2019-03-29T00:27:13.139Z,13.70
2019-03-29T00:29:50.785Z,13.60
2019-03-29T00:32:25.829Z,13.70
2019-03-29T00:35:00.868Z,13.70
2019-03-29T00:37:36.615Z,13.70
2019-03-29T00:40:14.162Z,13.60
2019-03-29T00:42:55.441Z,13.60
2019-03-29T00:45:32.948Z,13.60
2019-03-29T00:48:07.436Z,13.60
2019-03-29T00:50:41.599Z,13.60
2019-03-29T00:53:16.085Z,13.60
2019-03-29T00:55:51.242Z,13.60
2019-03-29T00:58:27.584Z,13.60
2019-03-29T01:01:02.134Z,13.50
2019-03-29T01:03:37.339Z,13.50
2019-03-29T01:06:12.915Z,13.50
2019-03-29T01:08:47.720Z,13.50
2019-03-29T01:11:26.613Z,13.60
2019-03-29T01:14:08.545Z,13.50
2019-03-29T01:16:45.203Z,13.60
2019-03-29T01:19:20.939Z,13.50
2019-03-29T01:21:55.573Z,13.50
2019-03-29T01:24:30.671Z,13.50
2019-03-29T01:27:06.295Z,13.50
2019-03-29T01:29:40.867Z,13.40
2019-03-29T01:32:16.196Z,13.30
2019-03-29T01:34:51.322Z,13.30
2019-03-29T01:37:25.661Z,13.30
2019-03-29T01:40:00.752Z,13.40
2019-03-29T01:42:35.955Z,13.20
2019-03-29T01:45:12.804Z,13.20
2019-03-29T01:47:47.443Z,13.20
2019-03-29T01:50:21.667Z,13.20
2019-03-29T01:52:56.427Z,13.20
2019-03-29T01:55:31.627Z,13.30
2019-03-29T01:58:05.695Z,13.30
2019-03-29T02:00:40.996Z,13.20
2019-03-29T02:03:17.907Z,13.20
2019-03-29T02:05:54.659Z,13.10
2019-03-29T02:08:35.575Z,13.20
2019-03-29T02:11:05.006Z,13.10
2019-03-29T02:13:39.675Z,13.20
2019-03-29T02:16:20.229Z,13.20
2019-03-29T02:18:55.774Z,13.10
2019-03-29T02:21:31.588Z,13.10
2019-03-29T02:24:06.546Z,13.10
2019-03-29T02:26:40.870Z,13.10
2019-03-29T02:29:15.904Z,13.10
2019-03-29T02:31:50.830Z,13.10
2019-03-29T02:34:27.911Z,13.10
2019-03-29T02:37:02.973Z,13.10
2019-03-29T02:39:38.539Z,13.10
2019-03-29T02:42:14.962Z,13.10
2019-03-29T02:44:49.842Z,13.10
2019-03-29T02:47:24.664Z,13.20
2019-03-29T02:49:59.113Z,13.20
2019-03-29T02:52:33.981Z,13.10
2019-03-29T02:55:08.208Z,13.00
2019-03-29T02:57:43.011Z,13.00
2019-03-29T03:00:18.227Z,13.00
2019-03-29T03:02:53.546Z,13.00
2019-03-29T03:05:30.800Z,13.10
2019-03-29T03:08:05.799Z,12.90
2019-03-29T03:10:40.554Z,12.90
2019-03-29T03:13:14.927Z,12.90
2019-03-29T03:15:51.159Z,13.00
2019-03-29T03:18:27.104Z,13.00
2019-03-29T03:21:03.902Z,13.00
2019-03-29T03:23:38.887Z,13.00
2019-03-29T03:26:14.453Z,13.00
2019-03-29T03:28:48.782Z,12.90
2019-03-29T03:31:22.867Z,13.00
2019-03-29T03:33:57.412Z,12.90
2019-03-29T03:36:33.337Z,12.90
2019-03-29T03:39:30.512Z,12.90
2019-03-29T03:41:51.663Z,12.90
2019-03-29T03:44:26.511Z,12.90
2019-03-29T03:47:02.332Z,12.90
2019-03-29T03:49:36.862Z,12.90
2019-03-29T03:52:11.713Z,12.90
2019-03-29T03:54:47.801Z,13.00
2019-03-29T03:57:24.888Z,13.00
2019-03-29T04:00:03.323Z,12.90
2019-03-29T04:02:39.831Z,12.90
2019-03-29T04:05:14.492Z,12.90
2019-03-29T04:07:48.917Z,12.80
2019-03-29T04:10:23.504Z,12.80
2019-03-29T04:12:58.388Z,12.80
2019-03-29T04:15:32.910Z,12.70
2019-03-29T04:18:07.358Z,12.70
2019-03-29T04:20:42.149Z,12.70
2019-03-29T04:23:16.314Z,12.70
2019-03-29T04:25:51.600Z,12.60
2019-03-29T04:28:26.510Z,12.60
2019-03-29T04:31:06.140Z,12.70
2019-03-29T04:33:42.473Z,12.60
2019-03-29T04:36:17.705Z,12.60
2019-03-29T04:38:52.702Z,12.60
2019-03-29T04:41:28.253Z,12.60
2019-03-29T04:44:04.802Z,12.60
2019-03-29T04:46:39.630Z,12.60
2019-03-29T04:49:15.356Z,12.60
2019-03-29T04:51:51.096Z,12.50
2019-03-29T04:54:25.683Z,12.50
2019-03-29T04:57:01.412Z,12.60
2019-03-29T04:59:35.963Z,12.60
2019-03-29T05:02:11.407Z,12.60
2019-03-29T05:04:47.234Z,12.60
2019-03-29T05:07:21.816Z,12.70
2019-03-29T05:09:56.927Z,12.70
2019-03-29T05:12:31.773Z,12.70
2019-03-29T05:15:09.529Z,12.70
2019-03-29T05:17:47.583Z,12.80
2019-03-29T05:20:22.076Z,12.80
2019-03-29T05:22:58.408Z,12.90
2019-03-29T05:25:34.171Z,12.80
2019-03-29T05:28:09.499Z,12.90
2019-03-29T05:30:44.374Z,12.80
2019-03-29T05:33:19.728Z,12.90
2019-03-29T05:35:55.166Z,12.90
2019-03-29T05:38:33.548Z,13.00
2019-03-29T05:41:08.905Z,13.00
2019-03-29T05:43:43.956Z,13.10
2019-03-29T05:46:20.043Z,13.10
2019-03-29T05:49:10.329Z,13.10
2019-03-29T05:51:47.909Z,13.20
2019-03-29T05:54:23.530Z,13.20
2019-03-29T05:57:00.826Z,13.20
2019-03-29T05:59:40.885Z,13.30
2019-03-29T06:02:17.440Z,13.30
2019-03-29T06:04:52.148Z,13.30
2019-03-29T06:07:27.141Z,13.40
2019-03-29T06:10:02.366Z,13.40
2019-03-29T06:12:37.091Z,13.40
2019-03-29T06:15:11.707Z,13.50
2019-03-29T06:17:48.952Z,13.60
2019-03-29T06:20:22.174Z,13.60
2019-03-29T06:22:58.922Z,13.60
2019-03-29T06:25:33.890Z,13.70
2019-03-29T06:28:08.193Z,13.80
2019-03-29T06:30:47.339Z,13.90
2019-03-29T06:33:26.515Z,14.00
2019-03-29T06:36:04.661Z,14.00
2019-03-29T06:38:41.602Z,14.00
2019-03-29T06:41:16.558Z,14.00
2019-03-29T06:43:54.383Z,14.10
2019-03-29T06:46:29.087Z,14.30
2019-03-29T06:49:05.568Z,14.30
2019-03-29T06:51:42.033Z,14.40
2019-03-29T06:54:17.789Z,14.40
2019-03-29T06:56:53.231Z,14.50
2019-03-29T06:59:28.311Z,14.50
2019-03-29T07:02:03.418Z,14.60
2019-03-29T07:04:37.789Z,14.70
2019-03-29T07:07:13.717Z,14.70
2019-03-29T07:09:50.301Z,14.80
2019-03-29T07:12:30.003Z,14.80
2019-03-29T07:15:04.313Z,14.90
2019-03-29T07:17:41.748Z,14.90
2019-03-29T07:20:18.812Z,14.80
2019-03-29T07:22:55.063Z,15.00
2019-03-29T07:25:31.367Z,14.90
2019-03-29T07:28:13.247Z,15.00
2019-03-29T07:30:48.602Z,15.00
2019-03-29T07:33:24.139Z,15.20
2019-03-29T07:35:58.867Z,15.10
2019-03-29T07:38:35.665Z,15.20
2019-03-29T07:41:11.322Z,15.30
2019-03-29T07:43:48.401Z,15.30
2019-03-29T07:46:24.136Z,15.40
2019-03-29T07:49:00.612Z,15.40
2019-03-29T07:51:36.527Z,15.40
2019-03-29T07:54:13.147Z,15.60
2019-03-29T07:56:48.517Z,15.60
2019-03-29T07:59:29.128Z,15.60
2019-03-29T08:02:04.222Z,15.70
2019-03-29T08:04:50.472Z,15.80
2019-03-29T08:07:28.114Z,15.80
2019-03-29T08:10:04.668Z,15.80
2019-03-29T08:12:43.822Z,15.90
2019-03-29T08:15:20.456Z,16.00
2019-03-29T08:17:55.350Z,16.00
2019-03-29T08:20:43.574Z,16.10
2019-03-29T08:23:09.970Z,16.30
2019-03-29T08:25:48.203Z,16.30
2019-03-29T08:28:23.533Z,16.30
2019-03-29T08:30:59.424Z,16.30
2019-03-29T08:33:35.651Z,16.30
2019-03-29T08:36:11.930Z,16.20
2019-03-29T08:38:48.506Z,16.30
2019-03-29T08:41:25.020Z,16.40
2019-03-29T08:43:59.524Z,16.50
2019-03-29T08:46:35.984Z,16.50
2019-03-29T08:49:16.955Z,16.50
2019-03-29T08:51:52.426Z,16.50
2019-03-29T08:54:30.125Z,16.60
2019-03-29T08:57:05.642Z,16.70
2019-03-29T08:59:42.761Z,16.60
2019-03-29T09:02:18.407Z,16.60
2019-03-29T09:04:55.926Z,16.80
2019-03-29T09:08:08.756Z,16.90
2019-03-29T09:10:43.646Z,17.00
2019-03-29T09:13:18.403Z,17.20
2019-03-29T09:15:55.281Z,17.30
2019-03-29T09:18:31.532Z,17.50
2019-03-29T09:21:08.319Z,17.50
2019-03-29T09:23:42.973Z,17.50
2019-03-29T09:26:18.761Z,17.40
2019-03-29T09:28:55.961Z,17.50
2019-03-29T09:31:39.063Z,17.50
2019-03-29T09:34:16.693Z,17.60
2019-03-29T09:36:51.840Z,17.70
2019-03-29T09:39:27.365Z,17.80
2019-03-29T09:42:03.886Z,17.70
2019-03-29T09:44:39.582Z,17.80
2019-03-29T09:47:26.778Z,17.80
2019-03-29T09:50:03.319Z,17.70
2019-03-29T09:52:39.137Z,17.70
2019-03-29T09:55:14.327Z,17.70
2019-03-29T09:57:51.731Z,17.70
2019-03-29T10:00:26.534Z,17.70
2019-03-29T10:03:05.945Z,17.80
2019-03-29T10:05:42.632Z,17.70
2019-03-29T10:08:22.545Z,17.80
2019-03-29T10:10:57.984Z,17.80
2019-03-29T10:13:34.212Z,17.70
2019-03-29T10:16:08.936Z,17.80
2019-03-29T10:18:43.780Z,17.70
2019-03-29T10:21:20.416Z,17.60
2019-03-29T10:23:56.533Z,17.60
2019-03-29T10:26:32.846Z,17.80
2019-03-29T10:29:09.481Z,17.90
2019-03-29T10:31:48.911Z,18.00
2019-03-29T10:34:23.591Z,18.10
2019-03-29T10:36:57.009Z,18.20
2019-03-29T10:39:35.641Z,18.20
2019-03-29T10:42:09.618Z,18.30
2019-03-29T10:44:51.784Z,18.30
2019-03-29T10:47:42.981Z,18.20
2019-03-29T10:50:08.358Z,18.20
2019-03-29T10:52:45.529Z,18.30
2019-03-29T10:55:30.091Z,18.40
2019-03-29T10:58:09.724Z,18.50
2019-03-29T11:00:47.070Z,18.70
2019-03-29T11:03:28.384Z,18.60
2019-03-29T11:06:02.053Z,18.40
2019-03-29T11:08:39.387Z,18.40
2019-03-29T11:11:14.621Z,18.50
2019-03-29T11:13:50.810Z,18.60
2019-03-29T11:16:36.632Z,18.70
2019-03-29T11:19:15.947Z,19.00
2019-03-29T11:21:56.994Z,18.90
2019-03-29T11:24:33.440Z,18.90
2019-03-29T11:27:08.513Z,19.00
2019-03-29T11:29:45.927Z,19.00
2019-03-29T11:32:26.237Z,19.00
2019-03-29T11:35:04.683Z,19.20
2019-03-29T11:37:39.555Z,19.20
2019-03-29T11:40:16.430Z,19.30
2019-03-29T11:42:51.219Z,19.30
2019-03-29T11:45:30.169Z,19.40
2019-03-29T11:48:10.321Z,19.30
2019-03-29T11:51:18.332Z,19.20
2019-03-29T11:53:41.772Z,19.20
2019-03-29T11:56:17.809Z,19.40
2019-03-29T11:58:54.460Z,19.50
2019-03-29T12:01:33.283Z,19.70
2019-03-29T12:04:08.742Z,19.70
2019-03-29T12:06:45.235Z,19.60
2019-03-29T12:09:25.080Z,19.70
2019-03-29T12:12:00.934Z,19.70
2019-03-29T12:14:36.189Z,19.80
2019-03-29T12:17:10.202Z,19.80
2019-03-29T12:19:47.265Z,19.70
2019-03-29T12:22:51.815Z,19.80
2019-03-29T12:25:31.013Z,19.80
2019-03-29T12:28:08.874Z,19.80
2019-03-29T12:30:50.778Z,19.70
2019-03-29T12:33:29.413Z,20.00
2019-03-29T12:36:08.478Z,20.00
2019-03-29T12:38:44.754Z,19.70
2019-03-29T12:41:21.810Z,19.70
2019-03-29T12:43:57.130Z,19.90
2019-03-29T12:46:32.927Z,20.00
2019-03-29T12:49:09.223Z,20.20
2019-03-29T12:51:46.448Z,20.10
2019-03-29T12:54:19.940Z,20.00
2019-03-29T12:56:54.190Z,20.00
2019-03-29T12:59:32.880Z,20.10
2019-03-29T13:02:12.302Z,20.20
2019-03-29T13:04:48.026Z,20.10
2019-03-29T13:07:23.967Z,20.20
2019-03-29T13:09:57.836Z,20.20
2019-03-29T13:12:33.969Z,20.50
2019-03-29T13:15:09.252Z,20.60
2019-03-29T13:17:46.329Z,20.70
2019-03-29T13:20:21.888Z,20.70
2019-03-29T13:22:57.728Z,20.50
2019-03-29T13:25:38.299Z,20.60
2019-03-29T13:28:15.743Z,20.50
2019-03-29T13:30:51.709Z,20.50
2019-03-29T13:33:26.398Z,20.50
2019-03-29T13:36:02.844Z,20.50
2019-03-29T13:38:37.744Z,20.80
2019-03-29T13:41:14.820Z,20.90
2019-03-29T13:43:52.477Z,20.80
2019-03-29T13:46:31.592Z,20.70
2019-03-29T13:49:08.872Z,20.60
2019-03-29T13:51:43.691Z,20.80
2019-03-29T13:54:18.599Z,20.90
2019-03-29T13:56:58.844Z,21.10
2019-03-29T13:59:33.426Z,21.30
2019-03-29T14:02:11.850Z,21.40
2019-03-29T14:04:46.382Z,21.50
2019-03-29T14:07:20.355Z,21.50
2019-03-29T14:09:59.027Z,21.30
2019-03-29T14:12:36.175Z,21.30
2019-03-29T14:15:13.226Z,21.20
2019-03-29T14:17:55.318Z,21.20
2019-03-29T14:20:39.851Z,21.30
2019-03-29T14:23:16.765Z,21.60
2019-03-29T14:25:53.884Z,21.40
2019-03-29T14:28:29.667Z,21.40
2019-03-29T14:31:04.219Z,21.40
2019-03-29T14:33:43.723Z,21.60
2019-03-29T14:36:18.967Z,21.60
2019-03-29T14:38:55.546Z,21.70
2019-03-29T14:41:33.171Z,21.80
2019-03-29T14:44:11.560Z,21.90
2019-03-29T14:46:50.802Z,21.90
2019-03-29T14:49:25.591Z,21.70
2019-03-29T14:52:01.052Z,21.80
2019-03-29T14:54:36.288Z,21.80
2019-03-29T14:57:13.591Z,21.80
2019-03-29T15:00:05.136Z,21.80
2019-03-29T15:02:42.162Z,21.70
2019-03-29T15:05:18.029Z,21.60
2019-03-29T15:07:54.163Z,21.60
2019-03-29T15:10:35.144Z,21.40
2019-03-29T15:13:14.073Z,21.40
2019-03-29T15:15:50.831Z,21.30
2019-03-29T15:18:26.783Z,21.40
2019-03-29T15:21:05.662Z,21.30
2019-03-29T15:23:40.746Z,21.20
2019-03-29T15:26:18.370Z,21.30
2019-03-29T15:28:56.864Z,21.50
2019-03-29T15:31:32.600Z,21.40
2019-03-29T15:34:08.155Z,21.50
2019-03-29T15:36:42.820Z,21.50
2019-03-29T15:39:17.244Z,21.60
2019-03-29T15:41:52.522Z,21.60
2019-03-29T15:44:30.002Z,21.70
2019-03-29T15:47:06.853Z,21.60
2019-03-29T15:49:56.668Z,21.60
2019-03-29T15:52:37.512Z,21.60
2019-03-29T15:55:12.423Z,21.60
2019-03-29T15:57:47.257Z,21.70
2019-03-29T16:00:26.955Z,21.70
2019-03-29T16:03:20.278Z,21.60
2019-03-29T16:06:01.742Z,21.80
2019-03-29T16:08:37.108Z,22.60
2019-03-29T16:11:17.175Z,23.30
2019-03-29T16:13:49.406Z,23.70
2019-03-29T16:16:26.306Z,24.00
2019-03-29T16:19:02.653Z,24.00
2019-03-29T16:21:44.030Z,23.40
2019-03-29T16:24:20.402Z,23.30
2019-03-29T16:27:21.092Z,22.50
2019-03-29T16:30:00.665Z,20.60
2019-03-29T16:32:35.531Z,19.60
2019-03-29T16:35:18.054Z,18.80
2019-03-29T16:37:57.428Z,18.40
2019-03-29T16:40:34.397Z,18.20
2019-03-29T16:43:10.653Z,18.20
2019-03-29T16:45:48.929Z,17.90
2019-03-29T16:48:26.411Z,18.00
2019-03-29T16:51:11.514Z,17.90
2019-03-29T16:53:46.808Z,17.60
2019-03-29T16:56:24.881Z,17.40
2019-03-29T16:59:42.894Z,17.40
2019-03-29T17:02:17.821Z,17.30
2019-03-29T17:04:58.798Z,17.20
2019-03-29T17:07:40.757Z,17.10
2019-03-29T17:10:16.558Z,17.00
2019-03-29T17:12:52.357Z,17.00
2019-03-29T17:15:32.745Z,16.90
2019-03-29T17:18:11.800Z,17.00
2019-03-29T17:20:53.520Z,17.00
2019-03-29T17:23:31.144Z,16.70
2019-03-29T17:26:12.114Z,16.60
2019-03-29T17:28:54.210Z,16.60
2019-03-29T17:31:35.931Z,16.40
2019-03-29T17:34:13.960Z,16.30
2019-03-29T17:36:49.932Z,16.20
2019-03-29T17:39:25.296Z,16.20
2019-03-29T17:42:01.800Z,16.20
2019-03-29T17:44:36.784Z,16.20
2019-03-29T17:47:36.883Z,16.20
2019-03-29T17:50:14.644Z,16.20
2019-03-29T17:52:55.823Z,16.00
2019-03-29T17:55:38.947Z,15.90
2019-03-29T17:58:20.597Z,15.90
2019-03-29T18:00:57.615Z,15.80
2019-03-29T18:03:37.508Z,15.90
2019-03-29T18:06:16.571Z,15.80
2019-03-29T18:08:52.395Z,15.70
2019-03-29T18:11:38.593Z,15.70
2019-03-29T18:15:12.025Z,15.70
2019-03-29T18:17:50.944Z,15.50
2019-03-29T18:20:30.254Z,15.50
2019-03-29T18:23:25.086Z,15.60
2019-03-29T18:26:00.582Z,15.60
2019-03-29T18:28:38.143Z,15.70
2019-03-29T18:31:16.460Z,15.60
2019-03-29T18:33:53.021Z,15.70
2019-03-29T18:36:28.495Z,15.70
2019-03-29T18:39:05.068Z,15.60
2019-03-29T18:41:45.186Z,15.70
2019-03-29T18:44:21.727Z,15.70
